Time;durP1;ratioP1;P1;durP2;ratioP2;P2;SDS_P1;SDS_P2;PMS_P1;PMS_P2;Temp;Humidity;BMP_temperature;BMP_pressure;BME280_temperature;BME280_humidity;BME280_pressure;Samples;Min_cycle;Max_cycle;Signal;HPM_P1;HPM_P2
2023/07/01 00:01:56;;;;;;;8.23;2.80;;;18.30;90.90;;;;;;5051025;28;20401;-65
2023/07/01 00:04:22;;;;;;;7.95;2.97;;;18.30;91.20;;;;;;5060864;28;20405;-66
2023/07/01 00:06:47;;;;;;;9.25;2.78;;;18.30;91.10;;;;;;5049189;28;20428;-66
2023/07/01 00:09:13;;;;;;;9.53;2.93;;;18.30;91.20;;;;;;5032588;28;20437;-66
2023/07/01 00:11:39;;;;;;;11.30;3.10;;;18.20;91.20;;;;;;5048980;28;20428;-66
2023/07/01 00:14:04;;;;;;;10.63;2.90;;;18.20;91.30;;;;;;5049704;28;20488;-67
2023/07/01 00:16:31;;;;;;;8.07;3.10;;;18.30;91.40;;;;;;5050282;28;20413;-66
2023/07/01 00:18:57;;;;;;;7.57;2.75;;;18.20;91.40;;;;;;5044681;28;20929;-66
2023/07/01 00:21:23;;;;;;;9.60;2.92;;;18.20;91.40;;;;;;5051095;28;20408;-65
2023/07/01 00:23:48;;;;;;;7.50;3.00;;;18.20;91.40;;;;;;5047797;28;20496;-66
2023/07/01 00:26:14;;;;;;;7.70;2.70;;;18.20;91.40;;;;;;5051470;28;20818;-66
2023/07/01 00:28:39;;;;;;;7.87;2.63;;;18.30;91.60;;;;;;5049786;28;20445;-66
2023/07/01 00:31:05;;;;;;;8.88;2.65;;;18.30;91.60;;;;;;5049680;28;20380;-66
2023/07/01 00:33:31;;;;;;;11.23;2.90;;;18.30;91.60;;;;;;5049461;28;20413;-63
2023/07/01 00:35:56;;;;;;;10.00;2.90;;;18.30;91.70;;;;;;5048934;28;20496;-67
2023/07/01 00:38:22;;;;;;;9.37;2.80;;;18.20;91.80;;;;;;5048491;28;20437;-66
2023/07/01 00:40:47;;;;;;;10.48;3.17;;;18.30;92.00;;;;;;5050606;28;20481;-66
2023/07/01 00:43:13;;;;;;;7.65;3.28;;;18.20;91.90;;;;;;5044442;28;20417;-64
2023/07/01 00:45:39;;;;;;;9.82;3.30;;;18.20;92.00;;;;;;5050489;28;20754;-67
2023/07/01 00:48:05;;;;;;;9.60;2.90;;;18.20;92.20;;;;;;5031881;28;20421;-66
2023/07/01 00:50:31;;;;;;;7.93;2.90;;;18.20;92.30;;;;;;5050517;28;20763;-66
2023/07/01 00:52:56;;;;;;;8.80;3.00;;;18.20;92.40;;;;;;5049965;28;20401;-66
2023/07/01 00:55:22;;;;;;;7.53;3.03;;;18.20;92.40;;;;;;5049680;28;20405;-65
2023/07/01 00:57:47;;;;;;;8.90;3.25;;;18.20;92.50;;;;;;5046791;28;21040;-64
2023/07/01 01:00:13;;;;;;;8.27;3.00;;;18.20;92.50;;;;;;5050192;28;20459;-66
2023/07/01 01:02:45;;;;;;;8.27;2.90;;;18.20;92.60;;;;;;5049946;28;20409;-66
2023/07/01 01:05:18;;;;;;;7.10;2.72;;;18.20;92.70;;;;;;5049917;28;20401;-66
2023/07/01 01:07:59;;;;;;;7.18;3.03;;;18.20;92.80;;;;;;5047514;28;20915;-63
2023/07/01 01:10:26;;;;;;;7.15;3.00;;;18.20;92.80;;;;;;5041852;28;20424;-65
2023/07/01 01:12:56;;;;;;;7.65;3.10;;;18.20;92.90;;;;;;5047494;28;20416;-67
2023/07/01 01:15:23;;;;;;;9.55;3.30;;;18.20;93.00;;;;;;5042359;28;20405;-66
2023/07/01 01:17:52;;;;;;;9.93;3.13;;;18.20;92.90;;;;;;5048872;28;20821;-66
2023/07/01 01:20:20;;;;;;;8.35;3.25;;;18.20;93.00;;;;;;5048368;28;20397;-66
2023/07/01 01:22:57;;;;;;;8.45;3.33;;;18.20;93.00;;;;;;5046050;28;20806;-67
2023/07/01 01:25:42;;;;;;;6.23;3.00;;;18.20;93.00;;;;;;5048888;28;20406;-66
2023/07/01 01:28:09;;;;;;;8.30;3.35;;;18.20;92.90;;;;;;5047357;28;20931;-66
2023/07/01 01:30:35;;;;;;;7.70;2.80;;;18.20;92.90;;;;;;5043880;28;20399;-67
2023/07/01 01:33:01;;;;;;;6.75;3.00;;;18.20;93.00;;;;;;5046789;28;20413;-66
2023/07/01 01:35:27;;;;;;;9.82;3.58;;;18.20;93.00;;;;;;5049234;28;20953;-64
2023/07/01 01:38:06;;;;;;;9.10;3.30;;;18.20;93.00;;;;;;5045696;28;20516;-67
2023/07/01 01:40:42;;;;;;;8.23;3.10;;;18.20;92.90;;;;;;5043667;28;20440;-66
2023/07/01 01:43:17;;;;;;;6.75;3.30;;;18.20;92.90;;;;;;5047922;28;20410;-66
2023/07/01 01:45:44;;;;;;;9.50;3.60;;;18.20;92.80;;;;;;5048406;28;20397;-66
2023/07/01 01:48:11;;;;;;;7.72;3.28;;;18.40;92.90;;;;;;5047493;28;20535;-66
2023/07/01 01:50:39;;;;;;;10.32;3.45;;;18.20;93.00;;;;;;5049500;28;20451;-66
2023/07/01 01:53:06;;;;;;;8.03;3.17;;;18.20;93.20;;;;;;5049649;28;20462;-67
2023/07/01 01:55:32;;;;;;;10.70;3.70;;;18.20;93.40;;;;;;5049336;28;20397;-66
2023/07/01 01:57:59;;;;;;;10.63;3.57;;;18.20;93.30;;;;;;5048139;28;20456;-67
2023/07/01 02:00:25;;;;;;;8.18;3.47;;;18.20;93.20;;;;;;5048149;28;20766;-66
2023/07/01 02:02:51;;;;;;;8.30;3.63;;;18.20;93.40;;;;;;5047098;28;20409;-67
2023/07/01 02:05:16;;;;;;;8.73;3.20;;;18.10;93.40;;;;;;5048723;28;20831;-66
2023/07/01 02:07:42;;;;;;;10.63;3.53;;;18.20;93.40;;;;;;5044449;28;20474;-66
2023/07/01 02:10:08;;;;;;;10.85;3.60;;;18.10;93.30;;;;;;5046019;28;20417;-64
2023/07/01 02:12:34;;;;;;;7.30;3.20;;;18.10;93.30;;;;;;5047288;28;20409;-66
2023/07/01 02:14:59;;;;;;;7.88;3.38;;;18.10;93.40;;;;;;5048754;28;20422;-66
2023/07/01 02:19:58;;;;;;;9.43;3.65;;;18.20;93.20;;;;;;5045836;28;20777;-64
2023/07/01 02:22:24;;;;;;;10.23;3.28;;;18.10;93.20;;;;;;5037246;28;20457;-65
2023/07/01 02:24:49;;;;;;;6.97;3.28;;;18.20;93.10;;;;;;5021353;28;20837;-62
2023/07/01 02:27:15;;;;;;;11.17;3.63;;;18.20;93.30;;;;;;5043315;28;20425;-63
2023/07/01 02:29:41;;;;;;;11.50;4.00;;;18.20;93.30;;;;;;5045368;28;20933;-65
2023/07/01 02:32:07;;;;;;;7.33;3.37;;;18.20;93.50;;;;;;5041283;28;20812;-65
2023/07/01 02:34:33;;;;;;;9.83;3.50;;;18.20;93.60;;;;;;5048852;28;20397;-65
2023/07/01 02:36:58;;;;;;;7.63;3.10;;;18.20;93.60;;;;;;5044125;28;20424;-65
2023/07/01 02:39:24;;;;;;;8.87;3.57;;;18.10;93.60;;;;;;5042470;28;20921;-65
2023/07/01 02:41:50;;;;;;;7.63;3.25;;;18.10;93.80;;;;;;5044825;28;20421;-65
2023/07/01 02:44:16;;;;;;;9.47;3.37;;;18.10;93.90;;;;;;5048434;28;20453;-64
2023/07/01 02:46:43;;;;;;;9.00;3.73;;;18.10;94.00;;;;;;5047844;28;20442;-64
2023/07/01 02:49:08;;;;;;;6.90;3.15;;;18.10;94.30;;;;;;5046351;28;20420;-64
2023/07/01 02:51:34;;;;;;;7.32;3.40;;;18.10;94.30;;;;;;5032993;28;20430;-66
2023/07/01 02:53:59;;;;;;;9.20;3.70;;;18.00;94.50;;;;;;5032060;28;20420;-66
2023/07/01 02:56:25;;;;;;;8.33;3.50;;;18.00;94.60;;;;;;5052873;28;20397;-66
2023/07/01 02:58:50;;;;;;;9.87;3.50;;;18.00;94.70;;;;;;5041282;28;20926;-67
2023/07/01 03:01:16;;;;;;;9.10;3.35;;;18.00;94.90;;;;;;5035842;28;20473;-66
2023/07/01 03:03:42;;;;;;;9.15;3.72;;;18.00;95.20;;;;;;5023733;28;20920;-66
2023/07/01 03:06:09;;;;;;;8.70;3.50;;;17.90;95.30;;;;;;5043206;28;20397;-66
2023/07/01 03:08:35;;;;;;;7.88;3.30;;;17.90;95.60;;;;;;5033751;28;20861;-66
2023/07/01 03:11:03;;;;;;;8.05;3.22;;;17.90;95.50;;;;;;5052643;28;20408;-63
2023/07/01 03:13:28;;;;;;;9.35;3.50;;;17.90;95.60;;;;;;5032121;28;20425;-67
2023/07/01 03:15:55;;;;;;;7.70;3.33;;;17.90;95.60;;;;;;5052220;28;20815;-66
2023/07/01 03:18:21;;;;;;;7.68;3.30;;;17.90;95.70;;;;;;5039252;28;20423;-67
2023/07/01 03:20:46;;;;;;;9.43;3.20;;;17.90;96.30;;;;;;5051586;28;20957;-65
2023/07/01 03:23:12;;;;;;;7.97;3.35;;;17.90;96.90;;;;;;5043076;28;20511;-65
2023/07/01 03:25:38;;;;;;;7.03;2.93;;;17.90;97.80;;;;;;5051912;28;20827;-66
2023/07/01 03:28:04;;;;;;;6.72;3.28;;;17.80;98.30;;;;;;5032304;28;20425;-66
2023/07/01 03:30:31;;;;;;;11.18;3.22;;;17.80;98.80;;;;;;5051861;28;20883;-65
2023/07/01 03:32:57;;;;;;;9.00;3.27;;;17.70;99.70;;;;;;5043539;28;20408;-67
2023/07/01 03:35:22;;;;;;;7.30;3.20;;;17.70;99.90;;;;;;5038824;28;20399;-66
2023/07/01 03:37:48;;;;;;;6.60;3.10;;;17.60;99.90;;;;;;5049263;28;20531;-64
2023/07/01 03:40:14;;;;;;;6.90;2.90;;;17.60;99.90;;;;;;5036678;28;20399;-67
2023/07/01 03:42:41;;;;;;;6.90;3.30;;;17.60;99.90;;;;;;5039323;28;20525;-66
2023/07/01 03:45:08;;;;;;;8.15;3.30;;;17.50;99.90;;;;;;5041587;28;20449;-66
2023/07/01 03:47:39;;;;;;;7.72;3.33;;;17.50;99.90;;;;;;5049213;28;20413;-66
2023/07/01 03:50:09;;;;;;;8.13;3.60;;;17.50;99.90;;;;;;5045109;28;20401;-65
2023/07/01 03:52:39;;;;;;;7.72;4.13;;;17.40;99.90;;;;;;5050266;28;20413;-67
2023/07/01 03:55:06;;;;;;;7.13;3.60;;;17.40;99.90;;;;;;5051353;28;20397;-66
2023/07/01 03:57:33;;;;;;;8.90;3.67;;;17.30;99.90;;;;;;5042494;28;20504;-67
2023/07/01 03:59:58;;;;;;;9.18;4.10;;;17.50;99.90;;;;;;5046083;28;20405;-67
2023/07/01 04:02:24;;;;;;;8.63;4.03;;;17.10;99.90;;;;;;5051377;28;20948;-66
2023/07/01 04:04:50;;;;;;;7.77;4.03;;;17.10;99.90;;;;;;5045391;28;20435;-67
2023/07/01 04:07:24;;;;;;;7.30;3.97;;;17.20;99.90;;;;;;5050355;28;20422;-66
2023/07/01 04:09:50;;;;;;;9.57;4.05;;;17.10;99.90;;;;;;5050788;28;20408;-65
2023/07/01 04:12:16;;;;;;;8.38;3.92;;;17.00;99.90;;;;;;5025261;28;20894;-65
2023/07/01 04:14:42;;;;;;;9.35;4.00;;;17.00;99.90;;;;;;5044043;28;20410;-65
2023/07/01 04:17:08;;;;;;;8.27;4.17;;;17.00;99.90;;;;;;5029887;28;21004;-64
2023/07/01 04:19:34;;;;;;;7.90;4.10;;;17.00;99.90;;;;;;5047754;28;20474;-65
2023/07/01 04:21:59;;;;;;;6.13;3.70;;;17.00;99.90;;;;;;5050028;28;20405;-65
2023/07/01 04:24:25;;;;;;;9.00;4.15;;;17.00;99.90;;;;;;5050784;28;20401;-65
2023/07/01 04:26:52;;;;;;;8.38;3.72;;;17.00;99.90;;;;;;5031393;28;20413;-65
2023/07/01 04:29:17;;;;;;;9.05;4.18;;;16.90;99.90;;;;;;5041436;28;20909;-64
2023/07/01 04:31:43;;;;;;;7.35;4.18;;;16.90;99.90;;;;;;5046087;28;20416;-65
2023/07/01 04:34:09;;;;;;;8.37;3.80;;;17.00;99.90;;;;;;5050273;28;20482;-63
2023/07/01 04:36:34;;;;;;;7.20;4.07;;;16.90;99.90;;;;;;5049232;28;20894;-64
2023/07/01 04:39:00;;;;;;;10.50;4.10;;;16.90;99.90;;;;;;5044085;28;20432;-65
2023/07/01 04:41:25;;;;;;;8.65;4.30;;;16.90;99.90;;;;;;5046219;28;20410;-67
2023/07/01 04:43:51;;;;;;;8.48;4.05;;;16.90;99.90;;;;;;5026679;28;20760;-66
2023/07/01 04:46:17;;;;;;;9.50;4.40;;;16.80;99.90;;;;;;5049967;28;20496;-66
2023/07/01 04:48:42;;;;;;;9.27;4.73;;;16.80;99.90;;;;;;5042250;28;20487;-65
2023/07/01 04:51:08;;;;;;;9.07;4.38;;;16.80;99.90;;;;;;5047072;28;20429;-65
2023/07/01 04:53:33;;;;;;;11.90;4.28;;;16.80;99.90;;;;;;5047825;28;20483;-64
2023/07/01 04:55:59;;;;;;;8.60;4.20;;;16.80;99.90;;;;;;5031235;28;20479;-65
2023/07/01 04:58:24;;;;;;;7.97;4.33;;;16.80;99.90;;;;;;5042322;28;20425;-64
2023/07/01 05:00:51;;;;;;;9.40;4.53;;;16.90;99.90;;;;;;5026345;28;20458;-66
2023/07/01 05:03:16;;;;;;;9.05;4.45;;;16.80;99.90;;;;;;5049916;28;20412;-65
2023/07/01 05:05:42;;;;;;;10.23;4.40;;;16.90;99.90;;;;;;5040610;28;20427;-64
2023/07/01 05:08:08;;;;;;;8.30;4.23;;;16.90;99.90;;;;;;5045293;28;20428;-64
2023/07/01 05:10:33;;;;;;;8.57;4.47;;;16.90;99.90;;;;;;5038126;28;20399;-65
2023/07/01 05:12:59;;;;;;;7.82;4.18;;;16.90;99.90;;;;;;5024345;28;20416;-64
2023/07/01 05:15:25;;;;;;;8.60;4.18;;;16.90;99.90;;;;;;5018019;28;20473;-68
2023/07/01 05:17:50;;;;;;;6.47;4.13;;;17.00;99.90;;;;;;5035311;28;20434;-63
2023/07/01 05:20:16;;;;;;;7.47;4.17;;;17.00;99.90;;;;;;5045976;28;20904;-63
2023/07/01 05:22:42;;;;;;;8.07;4.13;;;17.00;99.90;;;;;;5039795;28;20421;-64
2023/07/01 05:25:08;;;;;;;7.33;4.10;;;17.00;99.90;;;;;;5039987;28;20406;-65
2023/07/01 05:27:33;;;;;;;7.03;3.70;;;17.10;99.90;;;;;;5028984;28;20425;-64
2023/07/01 05:29:59;;;;;;;9.30;4.57;;;17.10;99.90;;;;;;5027934;28;20467;-65
2023/07/01 05:32:25;;;;;;;8.97;4.10;;;17.10;99.90;;;;;;5024921;28;20459;-64
2023/07/01 05:34:51;;;;;;;6.90;4.18;;;17.10;99.90;;;;;;5049412;28;20416;-63
2023/07/01 05:37:16;;;;;;;8.20;4.40;;;17.10;99.90;;;;;;5022931;28;20425;-63
2023/07/01 05:39:42;;;;;;;7.23;4.50;;;17.20;99.90;;;;;;5037586;28;20573;-62
2023/07/01 05:42:08;;;;;;;7.15;4.20;;;17.20;99.90;;;;;;5043888;28;20397;-66
2023/07/01 05:44:33;;;;;;;8.00;4.38;;;17.20;99.90;;;;;;5042076;28;20429;-65
2023/07/01 05:46:59;;;;;;;7.38;4.28;;;17.20;99.90;;;;;;5040204;28;20521;-67
2023/07/01 05:49:25;;;;;;;7.13;4.70;;;17.20;99.90;;;;;;5042904;28;20945;-67
2023/07/01 05:51:51;;;;;;;8.07;4.20;;;17.20;99.90;;;;;;5042955;28;20512;-65
2023/07/01 05:54:16;;;;;;;10.02;4.55;;;17.20;99.90;;;;;;5039188;28;20411;-66
2023/07/01 05:56:42;;;;;;;9.00;4.73;;;17.20;99.90;;;;;;5038796;28;20411;-65
2023/07/01 05:59:08;;;;;;;8.67;4.60;;;17.20;99.90;;;;;;5042912;28;20456;-64
2023/07/01 06:01:33;;;;;;;11.32;5.00;;;17.20;99.90;;;;;;5039560;28;20428;-66
2023/07/01 06:04:00;;;;;;;7.88;4.55;;;17.20;99.90;;;;;;5031927;28;20395;-66
2023/07/01 06:06:25;;;;;;;9.50;5.03;;;17.20;99.90;;;;;;5046228;28;20417;-66
2023/07/01 06:08:51;;;;;;;9.23;4.80;;;17.20;99.90;;;;;;5041168;28;20409;-66
2023/07/01 06:11:17;;;;;;;8.50;4.97;;;17.20;99.90;;;;;;5037446;28;20444;-65
2023/07/01 06:13:46;;;;;;;7.93;4.97;;;17.20;99.90;;;;;;5015964;28;20393;-65
2023/07/01 06:16:17;;;;;;;10.35;5.18;;;17.20;99.90;;;;;;5034931;28;20553;-65
2023/07/01 06:18:43;;;;;;;8.90;5.38;;;17.20;99.90;;;;;;5029797;28;20429;-66
2023/07/01 06:21:09;;;;;;;11.52;5.72;;;17.20;99.90;;;;;;5034984;28;20406;-66
2023/07/01 06:23:38;;;;;;;10.25;5.53;;;17.20;99.90;;;;;;5028679;28;20949;-65
2023/07/01 06:26:04;;;;;;;11.23;5.70;;;17.20;99.90;;;;;;5042663;28;20413;-66
2023/07/01 06:28:30;;;;;;;8.98;5.70;;;17.10;99.90;;;;;;5041630;28;20463;-65
2023/07/01 06:30:56;;;;;;;10.13;5.82;;;17.10;99.90;;;;;;5045518;28;20500;-65
2023/07/01 06:33:22;;;;;;;8.90;5.70;;;17.10;99.90;;;;;;5029436;28;20770;-65
2023/07/01 06:35:47;;;;;;;9.77;5.93;;;17.10;99.90;;;;;;5028764;28;20413;-65
2023/07/01 06:38:13;;;;;;;9.20;5.60;;;17.10;99.90;;;;;;5027820;28;20954;-66
2023/07/01 06:40:39;;;;;;;8.70;5.60;;;17.10;99.90;;;;;;5032936;28;20425;-66
2023/07/01 06:43:04;;;;;;;11.93;6.13;;;17.10;99.90;;;;;;5022018;28;20484;-66
2023/07/01 06:45:31;;;;;;;8.50;5.80;;;17.10;99.90;;;;;;5038656;28;20425;-66
2023/07/01 06:47:58;;;;;;;8.23;6.25;;;17.10;99.90;;;;;;5046429;28;20775;-65
2023/07/01 06:50:24;;;;;;;8.35;6.30;;;17.10;99.90;;;;;;5034321;28;20426;-65
2023/07/01 06:52:50;;;;;;;10.60;6.90;;;17.10;99.90;;;;;;5044722;28;20407;-65
2023/07/01 06:55:15;;;;;;;10.20;6.30;;;17.10;99.90;;;;;;5039331;28;20903;-65
2023/07/01 06:57:42;;;;;;;8.77;5.93;;;17.10;99.90;;;;;;5039313;28;20986;-65
2023/07/01 07:00:10;;;;;;;9.63;6.82;;;17.10;99.90;;;;;;5037259;28;20409;-65
2023/07/01 07:02:36;;;;;;;9.17;6.67;;;17.10;99.90;;;;;;5035419;28;20753;-65
2023/07/01 07:05:05;;;;;;;8.55;6.20;;;17.20;99.90;;;;;;5047286;28;20398;-65
2023/07/01 07:07:31;;;;;;;10.38;6.32;;;17.10;99.90;;;;;;5029145;28;20918;-66
2023/07/01 07:09:57;;;;;;;9.05;6.20;;;17.20;99.90;;;;;;5042376;28;20420;-67
2023/07/01 07:12:23;;;;;;;10.15;6.57;;;17.20;99.90;;;;;;5042557;28;20415;-66
2023/07/01 07:14:48;;;;;;;9.20;6.27;;;17.20;99.90;;;;;;5026239;28;20420;-64
2023/07/01 07:17:14;;;;;;;9.07;6.20;;;17.20;99.90;;;;;;5047877;28;20397;-65
2023/07/01 07:19:39;;;;;;;11.18;6.40;;;17.20;99.90;;;;;;5044571;28;20505;-63
2023/07/01 07:22:05;;;;;;;10.32;6.60;;;17.20;99.90;;;;;;5043588;28;20425;-63
2023/07/01 07:24:31;;;;;;;10.18;6.60;;;17.30;99.90;;;;;;5044792;28;20804;-64
2023/07/01 07:27:00;;;;;;;9.40;6.70;;;17.30;99.90;;;;;;5021303;28;20467;-63
2023/07/01 07:29:30;;;;;;;8.77;7.15;;;17.70;99.90;;;;;;5018503;28;20489;-63
2023/07/01 07:31:57;;;;;;;8.82;6.85;;;17.30;99.90;;;;;;5038955;28;20921;-62
2023/07/01 07:34:23;;;;;;;10.57;7.10;;;17.30;99.90;;;;;;5040771;28;20399;-62
2023/07/01 07:36:49;;;;;;;9.23;6.93;;;17.40;99.90;;;;;;5045417;28;20413;-64
2023/07/01 07:39:15;;;;;;;8.68;6.75;;;17.40;99.90;;;;;;5044477;28;20931;-66
2023/07/01 07:41:41;;;;;;;8.90;6.57;;;17.40;99.90;;;;;;5037273;28;20438;-62
2023/07/01 07:44:07;;;;;;;7.97;6.22;;;17.50;99.90;;;;;;5051640;28;20495;-65
2023/07/01 07:46:34;;;;;;;9.07;7.28;;;17.50;99.90;;;;;;5044922;28;20418;-65
2023/07/01 07:49:00;;;;;;;9.02;6.95;;;17.50;99.90;;;;;;5036461;28;20803;-63
2023/07/01 07:51:25;;;;;;;9.07;6.90;;;17.50;99.90;;;;;;5019603;28;20434;-64
2023/07/01 07:53:51;;;;;;;8.70;6.47;;;17.60;99.90;;;;;;5040222;28;20485;-64
2023/07/01 07:56:17;;;;;;;8.32;6.47;;;17.60;99.90;;;;;;5043885;28;20918;-64
2023/07/01 07:58:43;;;;;;;8.18;6.32;;;17.60;99.90;;;;;;5046841;28;20429;-65
2023/07/01 08:01:09;;;;;;;7.25;6.10;;;17.60;99.90;;;;;;5020715;28;20407;-63
2023/07/01 08:03:35;;;;;;;7.70;6.10;;;17.60;99.90;;;;;;5028977;28;20409;-63
2023/07/01 08:06:01;;;;;;;7.33;6.00;;;17.70;99.90;;;;;;5041933;28;20482;-66
2023/07/01 08:08:26;;;;;;;7.53;6.17;;;17.70;99.90;;;;;;5028457;28;20536;-67
2023/07/01 08:10:53;;;;;;;8.35;6.00;;;17.70;99.90;;;;;;5049824;28;20397;-66
2023/07/01 08:13:18;;;;;;;7.60;6.20;;;17.70;99.90;;;;;;5046043;28;20812;-65
2023/07/01 08:15:44;;;;;;;7.53;6.23;;;17.70;99.90;;;;;;5025934;28;20407;-65
2023/07/01 08:18:10;;;;;;;6.97;6.03;;;17.70;99.90;;;;;;5061053;22;20497;-64
2023/07/01 08:20:38;;;;;;;7.10;5.87;;;16.70;99.90;;;;;;5063554;28;20424;-63
2023/07/01 08:23:04;;;;;;;8.40;6.60;;;17.80;99.90;;;;;;5068207;28;20387;-63
2023/07/01 08:25:29;;;;;;;8.40;6.60;;;17.70;99.90;;;;;;5056822;28;20897;-63
2023/07/01 08:27:55;;;;;;;7.33;6.10;;;17.70;99.90;;;;;;5060805;28;20467;-63
2023/07/01 08:30:22;;;;;;;8.07;6.20;;;17.70;99.90;;;;;;5061462;28;20426;-63
2023/07/01 08:32:48;;;;;;;9.45;6.60;;;17.70;99.90;;;;;;5066139;28;20427;-63
2023/07/01 08:35:14;;;;;;;7.90;6.30;;;17.80;99.90;;;;;;5054618;28;20428;-63
2023/07/01 08:37:40;;;;;;;8.10;6.40;;;17.80;99.90;;;;;;5068862;28;20885;-63
2023/07/01 08:40:08;;;;;;;8.20;6.17;;;17.80;99.90;;;;;;5057135;28;20425;-63
2023/07/01 08:42:48;;;;;;;7.00;6.30;;;17.80;99.90;;;;;;5059979;28;20487;-63
2023/07/01 08:45:13;;;;;;;7.30;6.20;;;17.80;99.90;;;;;;5069890;28;20404;-63
2023/07/01 08:47:40;;;;;;;7.50;6.50;;;17.80;99.90;;;;;;5063220;28;20464;-63
2023/07/01 08:50:07;;;;;;;7.32;6.38;;;17.80;99.90;;;;;;5066854;28;20416;-63
2023/07/01 08:52:42;;;;;;;7.97;6.38;;;17.80;99.90;;;;;;5061680;28;20411;-63
2023/07/01 08:55:11;;;;;;;8.20;6.43;;;17.90;99.90;;;;;;5046019;28;20920;-63
2023/07/01 08:57:40;;;;;;;7.53;6.47;;;17.90;99.90;;;;;;5057882;28;20776;-63
2023/07/01 09:00:12;;;;;;;7.63;6.40;;;17.90;99.90;;;;;;5066984;28;20415;-63
2023/07/01 09:02:39;;;;;;;7.75;6.53;;;17.90;99.90;;;;;;5056995;28;20411;-63
2023/07/01 09:05:05;;;;;;;7.40;6.30;;;17.90;99.90;;;;;;5063765;28;20917;-63
2023/07/01 09:07:31;;;;;;;7.10;6.40;;;18.00;99.90;;;;;;5050444;28;20944;-64
2023/07/01 09:09:57;;;;;;;7.73;6.93;;;18.00;99.90;;;;;;5063959;28;20467;-64
2023/07/01 09:12:29;;;;;;;9.00;6.70;;;18.00;99.90;;;;;;5056638;28;20472;-64
2023/07/01 09:15:04;;;;;;;8.00;6.50;;;18.00;99.90;;;;;;5057862;28;20430;-64
2023/07/01 09:17:35;;;;;;;7.78;6.53;;;18.00;99.90;;;;;;5064662;28;20416;-64
2023/07/01 09:20:06;;;;;;;6.95;6.25;;;18.00;99.90;;;;;;5061574;28;20782;-64
2023/07/01 09:22:34;;;;;;;8.57;6.80;;;18.00;99.90;;;;;;5051085;28;20456;-64
2023/07/01 09:24:59;;;;;;;7.68;6.47;;;18.00;99.90;;;;;;5050958;28;20391;-64
2023/07/01 09:27:46;;;;;;;9.00;6.72;;;18.10;99.90;;;;;;5062456;28;20394;-64
2023/07/01 09:30:24;;;;;;;8.43;6.90;;;18.20;99.90;;;;;;5056917;28;20890;-63
2023/07/01 09:32:51;;;;;;;7.60;6.72;;;18.20;99.90;;;;;;5057857;28;20428;-64
2023/07/01 09:35:17;;;;;;;7.65;6.53;;;18.30;99.90;;;;;;5053134;28;20652;-63
2023/07/01 09:37:42;;;;;;;7.50;6.03;;;18.30;99.90;;;;;;5058344;28;20423;-64
2023/07/01 09:40:17;;;;;;;8.40;6.53;;;18.30;99.90;;;;;;5067651;28;20397;-64
2023/07/01 09:42:54;;;;;;;8.30;6.72;;;18.30;99.90;;;;;;5067018;28;20411;-64
2023/07/01 09:45:19;;;;;;;7.60;6.53;;;18.30;99.90;;;;;;5061408;28;20407;-64
2023/07/01 09:47:51;;;;;;;7.40;6.45;;;18.30;99.90;;;;;;5057652;28;20436;-63
2023/07/01 09:50:29;;;;;;;7.97;6.47;;;18.30;99.90;;;;;;5065068;28;20419;-63
2023/07/01 09:52:55;;;;;;;8.10;6.47;;;18.40;99.90;;;;;;5063494;28;20392;-63
2023/07/01 09:55:22;;;;;;;8.63;6.30;;;18.30;99.90;;;;;;5060746;28;20482;-63
2023/07/01 09:57:48;;;;;;;7.93;6.35;;;18.40;99.90;;;;;;5065262;28;20905;-63
2023/07/01 10:00:15;;;;;;;7.57;6.33;;;18.40;99.90;;;;;;5061562;28;20406;-63
2023/07/01 10:02:45;;;;;;;8.20;6.67;;;18.40;99.90;;;;;;5057561;28;20509;-63
2023/07/01 10:05:12;;;;;;;8.00;6.35;;;18.40;99.90;;;;;;5058269;28;20403;-63
2023/07/01 10:07:39;;;;;;;7.32;6.55;;;18.40;99.90;;;;;;5066984;28;20931;-63
2023/07/01 10:10:10;;;;;;;8.07;6.38;;;18.30;99.90;;;;;;5056889;28;20400;-63
2023/07/01 10:12:36;;;;;;;7.88;6.38;;;18.30;99.90;;;;;;5059922;28;20389;-63
2023/07/01 10:15:03;;;;;;;8.82;6.45;;;18.40;99.90;;;;;;5051613;28;20435;-63
2023/07/01 10:17:47;;;;;;;7.40;6.57;;;18.40;99.90;;;;;;5052646;28;20752;-63
2023/07/01 10:20:30;;;;;;;7.40;6.38;;;18.50;99.90;;;;;;5058561;28;20945;-63
2023/07/01 10:23:01;;;;;;;6.90;6.18;;;18.60;99.90;;;;;;5059272;28;20767;-63
2023/07/01 10:25:37;;;;;;;6.75;5.72;;;18.60;99.90;;;;;;5054379;28;20443;-63
2023/07/01 10:28:10;;;;;;;7.18;6.15;;;18.70;99.90;;;;;;5058930;28;20842;-63
2023/07/01 10:30:42;;;;;;;7.70;6.35;;;18.60;99.90;;;;;;5055098;28;20389;-63
2023/07/01 10:33:33;;;;;;;7.88;6.05;;;18.60;99.90;;;;;;5064908;28;20476;-63
2023/07/01 10:36:03;;;;;;;6.93;6.13;;;18.70;99.90;;;;;;5059635;28;20419;-63
2023/07/01 10:38:32;;;;;;;6.10;5.50;;;18.70;99.90;;;;;;5065414;28;20486;-63
2023/07/01 10:40:58;;;;;;;6.73;5.60;;;18.70;99.90;;;;;;5067863;28;20400;-63
2023/07/01 10:43:32;;;;;;;6.78;5.53;;;18.70;99.90;;;;;;5062477;28;20496;-63
2023/07/01 10:46:12;;;;;;;7.32;5.88;;;18.80;99.90;;;;;;5059961;28;20391;-63
2023/07/01 10:49:02;;;;;;;6.55;5.43;;;18.80;99.90;;;;;;5056482;28;20405;-63
2023/07/01 10:51:30;;;;;;;6.68;5.88;;;18.80;99.90;;;;;;5052908;28;20409;-63
2023/07/01 10:53:58;;;;;;;6.18;5.15;;;18.80;99.90;;;;;;5060420;28;20912;-63
2023/07/01 10:56:24;;;;;;;6.47;5.05;;;18.80;99.90;;;;;;5064756;28;20482;-63
2023/07/01 10:59:18;;;;;;;6.40;5.10;;;18.90;99.90;;;;;;5055577;28;20880;-63
2023/07/01 11:01:45;;;;;;;6.95;5.10;;;19.00;99.90;;;;;;5059836;28;20848;-63
2023/07/01 11:04:10;;;;;;;6.30;5.32;;;19.00;99.90;;;;;;5059070;28;20389;-63
2023/07/01 11:06:50;;;;;;;6.57;5.17;;;19.00;99.90;;;;;;5065319;28;20404;-64
2023/07/01 11:09:25;;;;;;;6.30;4.93;;;19.00;99.90;;;;;;5063289;28;20396;-63
2023/07/01 11:11:51;;;;;;;6.63;5.20;;;19.10;99.90;;;;;;5054340;28;20403;-63
2023/07/01 11:14:17;;;;;;;6.27;4.70;;;19.10;99.90;;;;;;5055438;28;20466;-63
2023/07/01 11:16:42;;;;;;;5.80;4.87;;;19.10;99.90;;;;;;5062027;28;20896;-63
2023/07/01 11:19:14;;;;;;;5.75;4.63;;;19.20;99.90;;;;;;5068781;28;20447;-64
2023/07/01 11:21:40;;;;;;;6.28;4.63;;;19.20;99.90;;;;;;5065797;28;21084;-64
2023/07/01 11:24:08;;;;;;;5.70;4.40;;;19.10;99.90;;;;;;5060410;28;20412;-64
2023/07/01 11:26:39;;;;;;;5.32;4.63;;;19.10;99.90;;;;;;5066309;28;20448;-64
2023/07/01 11:29:24;;;;;;;5.93;4.80;;;19.10;99.90;;;;;;5062361;28;20773;-64
2023/07/01 11:32:01;;;;;;;6.03;4.88;;;19.10;99.90;;;;;;5057292;28;20471;-64
2023/07/01 11:34:27;;;;;;;7.75;5.10;;;19.10;99.90;;;;;;5062016;28;20483;-64
2023/07/01 11:36:54;;;;;;;5.55;4.90;;;19.00;99.90;;;;;;5066795;28;20498;-64
2023/07/01 11:39:19;;;;;;;6.40;5.10;;;19.00;99.90;;;;;;5059264;28;20422;-64
2023/07/01 11:42:03;;;;;;;6.68;5.65;;;19.10;99.90;;;;;;5055822;28;20968;-64
2023/07/01 11:44:34;;;;;;;6.75;5.78;;;19.10;99.90;;;;;;5065179;28;20411;-64
2023/07/01 11:46:59;;;;;;;5.53;4.90;;;19.20;99.90;;;;;;5056629;28;20395;-64
2023/07/01 11:49:30;;;;;;;5.43;4.60;;;19.20;99.90;;;;;;5071994;28;20758;-64
2023/07/01 11:52:04;;;;;;;5.95;4.75;;;19.30;99.90;;;;;;5071141;28;20392;-64
2023/07/01 11:54:48;;;;;;;6.13;5.13;;;19.30;99.90;;;;;;5070305;28;20947;-64
2023/07/01 11:57:20;;;;;;;5.73;4.70;;;19.30;99.90;;;;;;5056902;28;20634;-64
2023/07/01 11:59:58;;;;;;;6.35;4.82;;;19.40;99.90;;;;;;5069542;28;20419;-64
2023/07/01 12:02:28;;;;;;;4.75;3.53;;;19.40;99.90;;;;;;5053223;28;20476;-64
2023/07/01 12:04:54;;;;;;;4.97;3.40;;;19.40;99.90;;;;;;5065992;28;20404;-64
2023/07/01 12:07:20;;;;;;;4.20;3.45;;;19.40;99.90;;;;;;5065334;28;20461;-64
2023/07/01 12:09:45;;;;;;;4.43;3.50;;;19.40;99.90;;;;;;5068437;28;20399;-64
2023/07/01 12:12:16;;;;;;;5.55;3.80;;;19.30;99.90;;;;;;5060413;28;20407;-64
2023/07/01 12:14:43;;;;;;;5.57;4.30;;;19.30;99.90;;;;;;5065471;28;20404;-64
2023/07/01 12:17:32;;;;;;;5.45;4.22;;;19.30;99.90;;;;;;5068696;28;20407;-64
2023/07/01 12:19:58;;;;;;;5.27;4.37;;;19.40;99.90;;;;;;5061729;28;20466;-64
2023/07/01 12:22:25;;;;;;;5.80;3.95;;;19.50;99.90;;;;;;5061137;28;20423;-64
2023/07/01 12:24:58;;;;;;;5.30;3.90;;;19.60;99.90;;;;;;5063723;28;20403;-64
2023/07/01 12:27:24;;;;;;;4.97;3.80;;;19.60;99.90;;;;;;5056259;28;20491;-64
2023/07/01 12:29:50;;;;;;;5.57;4.00;;;19.60;99.90;;;;;;5059883;28;20406;-64
2023/07/01 12:32:15;;;;;;;6.80;4.43;;;19.60;99.90;;;;;;5056786;28;20413;-64
2023/07/01 12:34:41;;;;;;;6.50;4.57;;;19.60;99.90;;;;;;5050219;28;20507;-64
2023/07/01 12:37:07;;;;;;;7.53;4.90;;;19.70;99.90;;;;;;5049715;28;20405;-64
2023/07/01 12:39:33;;;;;;;7.10;5.30;;;19.60;99.90;;;;;;5055698;28;20459;-64
2023/07/01 12:41:59;;;;;;;9.35;5.70;;;19.50;99.90;;;;;;5055071;28;20437;-64
2023/07/01 12:44:26;;;;;;;7.95;6.13;;;19.60;99.90;;;;;;5062222;28;20479;-64
2023/07/01 12:46:52;;;;;;;9.77;7.25;;;19.60;99.90;;;;;;5060213;28;20416;-63
2023/07/01 12:49:17;;;;;;;10.18;6.70;;;19.70;99.90;;;;;;5063616;28;20422;-64
2023/07/01 12:51:44;;;;;;;7.70;6.30;;;20.00;99.90;;;;;;5062353;28;20897;-63